Time;durP1;ratioP1;P1;durP2;ratioP2;P2;SDS_P1;SDS_P2;PMS_P1;PMS_P2;Temp;Humidity;BMP_temperature;BMP_pressure;BME280_temperature;BME280_humidity;BME280_pressure;Samples;Min_cycle;Max_cycle;Signal;HPM_P1;HPM_P2
2024/01/21 00:01:39;;;;;;;25.60;14.30;;;;;;;-4.08;85.03;100444.00;7213124;40;20250;31
2024/01/21 00:07:00;;;;;;;24.15;13.50;;;;;;;-4.14;85.01;100433.66;7213931;40;20468;31
2024/01/21 00:12:36;;;;;;;26.87;14.13;;;;;;;-4.17;84.99;100423.25;7230137;40;20260;31
2024/01/21 00:17:57;;;;;;;25.17;14.13;;;;;;;-4.11;85.18;100420.41;7228722;40;20346;31
2024/01/21 00:23:32;;;;;;;26.37;14.03;;;;;;;-4.11;84.24;100404.62;7260185;40;20233;31
2024/01/21 00:29:08;;;;;;;23.13;14.10;;;;;;;-4.06;84.50;100407.97;7275561;39;20241;31
2024/01/21 00:34:29;;;;;;;26.53;15.07;;;;;;;-4.04;84.09;100414.06;7197888;40;20251;31
2024/01/21 00:40:04;;;;;;;28.30;15.20;;;;;;;-4.12;83.57;100405.50;7181123;40;20243;31
2024/01/21 00:45:37;;;;;;;24.53;14.07;;;;;;;-4.19;83.62;100398.72;7194506;40;20264;31
2024/01/21 00:50:58;;;;;;;25.00;14.00;;;;;;;-4.32;83.89;100381.56;7216816;40;20246;31
2024/01/21 01:01:39;;;;;;;32.15;17.35;;;;;;;-4.39;83.33;100385.28;7215349;40;20736;31
2024/01/21 01:12:00;;;;;;;29.60;16.80;;;;;;;-4.50;83.03;100382.09;7234628;40;21297;31
2024/01/21 01:17:36;;;;;;;25.50;14.57;;;;;;;-4.67;82.33;100382.56;7218836;40;20242;31
2024/01/21 01:22:58;;;;;;;26.00;14.00;;;;;;;-4.78;82.85;100395.16;7233341;40;20266;31
2024/01/21 01:33:32;;;;;;;25.03;12.77;;;;;;;-4.96;84.30;100391.28;7276567;40;21368;31
2024/01/21 01:39:08;;;;;;;38.53;14.40;;;;;;;-4.92;84.60;100384.16;7244173;40;20249;31
2024/01/21 01:44:42;;;;;;;25.20;13.03;;;;;;;-4.88;84.55;100373.53;7266591;39;20272;31
2024/01/21 01:50:20;;;;;;;31.73;16.33;;;;;;;-4.94;84.84;100371.03;7259608;40;20239;31
2024/01/21 01:55:55;;;;;;;39.43;20.40;;;;;;;-4.87;84.65;100362.06;7246967;40;20260;31
2024/01/21 02:01:30;;;;;;;42.63;15.70;;;;;;;-4.88;84.75;100360.38;7183916;40;20262;31
2024/01/21 02:07:06;;;;;;;73.40;15.50;;;;;;;-4.95;84.38;100357.94;7160486;40;20275;31
2024/01/21 02:17:46;;;;;;;33.87;14.03;;;;;;;-4.86;85.18;100357.69;7166243;40;20747;31
2024/01/21 02:23:22;;;;;;;27.27;13.73;;;;;;;-4.92;84.74;100353.47;7228565;40;20281;31
2024/01/21 02:28:57;;;;;;;122.23;15.30;;;;;;;-4.87;84.99;100353.34;7182462;40;20313;31
2024/01/21 02:34:17;;;;;;;33.03;13.33;;;;;;;-5.03;85.00;100347.62;7166892;40;20247;31
2024/01/21 02:39:54;;;;;;;45.27;12.97;;;;;;;-5.07;85.87;100344.22;7199373;40;20254;31
2024/01/21 02:45:15;;;;;;;57.90;13.07;;;;;;;-5.19;85.73;100344.56;7264081;39;20826;31
2024/01/21 02:50:32;;;;;;;23.30;12.63;;;;;;;-5.19;86.65;100359.47;7286316;39;20256;31
2024/01/21 02:56:08;;;;;;;25.73;13.33;;;;;;;-5.16;86.06;100344.47;7232291;40;20257;31
2024/01/21 03:07:43;;;;;;;27.70;14.10;;;;;;;-5.07;86.83;100346.88;7305682;39;20272;31
2024/01/21 03:13:20;;;;;;;26.60;13.00;;;;;;;-4.98;86.48;100344.88;7225600;40;20262;31
2024/01/21 03:18:40;;;;;;;45.67;14.20;;;;;;;-4.91;87.04;100331.53;7218449;39;20245;31
2024/01/21 03:29:20;;;;;;;67.93;12.03;;;;;;;-4.85;86.37;100317.34;7310952;39;20287;31
2024/01/21 03:34:55;;;;;;;42.53;13.57;;;;;;;-4.89;86.78;100305.22;7261992;40;20241;31
2024/01/21 03:40:30;;;;;;;32.83;14.33;;;;;;;-4.83;87.10;100312.94;7186579;40;20265;31
2024/01/21 03:46:06;;;;;;;42.50;13.90;;;;;;;-4.88;87.51;100312.19;7236192;40;20335;31
2024/01/21 03:51:26;;;;;;;37.10;13.85;;;;;;;-4.89;87.38;100310.47;7179826;40;21425;31
2024/01/21 03:57:00;;;;;;;29.63;13.57;;;;;;;-4.92;88.26;100302.69;7257731;40;20409;31
2024/01/21 04:02:36;;;;;;;29.70;14.00;;;;;;;-4.80;87.82;100302.31;7186572;40;20263;31
2024/01/21 04:07:56;;;;;;;26.53;14.03;;;;;;;-4.73;88.24;100298.59;7194597;40;20300;31
2024/01/21 04:13:32;;;;;;;30.40;14.73;;;;;;;-4.72;87.76;100303.81;7235672;40;20268;31
2024/01/21 04:24:11;;;;;;;51.10;15.00;;;;;;;-4.62;87.87;100297.41;7193593;40;20743;31
2024/01/21 04:29:46;;;;;;;41.73;15.07;;;;;;;-4.60;88.17;100298.19;7182377;40;20305;31
2024/01/21 04:35:21;;;;;;;44.30;15.30;;;;;;;-4.56;88.53;100299.81;7261951;40;20359;31
2024/01/21 04:40:57;;;;;;;31.60;14.87;;;;;;;-4.53;89.00;100303.28;7256769;40;20237;31
2024/01/21 04:46:14;;;;;;;33.03;15.10;;;;;;;-4.47;89.27;100310.97;7239848;40;20284;31
2024/01/21 04:51:34;;;;;;;32.03;15.50;;;;;;;-4.43;89.34;100292.41;7220938;40;20333;31
2024/01/21 04:57:09;;;;;;;30.40;14.83;;;;;;;-4.38;89.34;100289.66;7206616;40;20238;31
2024/01/21 05:02:27;;;;;;;32.30;15.95;;;;;;;-4.25;89.28;100293.63;7051188;40;20272;31
2024/01/21 05:07:47;;;;;;;33.23;15.53;;;;;;;-4.23;89.23;100282.16;7258944;39;20346;31
2024/01/21 05:13:24;;;;;;;31.07;16.33;;;;;;;-4.27;88.84;100279.69;7273885;40;20249;31
2024/01/21 05:18:45;;;;;;;36.00;15.27;;;;;;;-4.29;89.31;100276.22;7237736;40;20246;31
2024/01/21 05:24:05;;;;;;;30.77;14.70;;;;;;;-4.29;90.02;100270.97;7243202;40;20257;31
2024/01/21 05:29:42;;;;;;;37.60;16.70;;;;;;;-4.23;89.39;100282.16;7249310;40;20390;31
2024/01/21 05:35:02;;;;;;;31.60;17.20;;;;;;;-4.19;89.72;100273.25;7217475;40;20250;31
2024/01/21 05:45:41;;;;;;;34.13;17.03;;;;;;;-4.10;90.05;100278.25;7266874;39;20374;31
2024/01/21 05:56:21;;;;;;;31.30;15.70;;;;;;;-4.03;89.00;100276.25;7262655;40;20269;31
2024/01/21 06:06:59;;;;;;;33.90;15.63;;;;;;;-4.02;88.55;100270.09;7288777;39;21370;31
2024/01/21 06:17:21;;;;;;;31.23;15.77;;;;;;;-4.01;87.99;100279.72;7323086;39;21311;31
2024/01/21 06:22:56;;;;;;;29.53;14.53;;;;;;;-4.23;87.06;100282.16;7337788;39;20267;31
2024/01/21 06:33:32;;;;;;;29.13;14.77;;;;;;;-4.32;87.56;100297.38;7280533;40;21170;31
2024/01/21 06:39:09;;;;;;;24.43;14.63;;;;;;;-4.26;87.45;100291.94;7277069;40;20253;31
2024/01/21 06:44:28;;;;;;;25.00;13.60;;;;;;;-4.46;86.50;100289.91;7237028;40;21316;31
2024/01/21 06:49:49;;;;;;;25.60;14.30;;;;;;;-4.45;87.43;100280.25;7238788;40;20255;31
2024/01/21 06:55:26;;;;;;;28.10;13.93;;;;;;;-4.41;87.43;100282.72;7177903;40;20246;31
2024/01/21 07:00:51;;;;;;;33.93;17.00;;;;;;;-4.31;88.21;100293.84;7134023;40;20701;31
2024/01/21 07:06:23;;;;;;;35.90;17.90;;;;;;;-4.25;89.52;100283.09;7192804;40;20238;31
2024/01/21 07:12:01;;;;;;;39.37;18.13;;;;;;;-4.15;89.67;100284.56;7224536;39;20347;31
2024/01/21 07:17:35;;;;;;;38.07;17.27;;;;;;;-4.15;90.29;100285.41;7254298;39;20700;31
2024/01/21 07:23:11;;;;;;;39.90;18.10;;;;;;;-4.13;90.12;100285.38;7198977;40;20257;31
2024/01/21 07:28:47;;;;;;;35.80;16.55;;;;;;;-4.02;89.59;100285.03;7118493;40;20280;31
2024/01/21 07:34:22;;;;;;;36.27;17.17;;;;;;;-3.98;89.70;100284.00;7082004;41;20685;31
2024/01/21 07:39:43;;;;;;;34.50;16.65;;;;;;;-4.12;88.94;100316.03;7040969;41;20281;31
2024/01/21 07:50:21;;;;;;;36.40;18.30;;;;;;;-4.00;88.50;100312.16;7245372;39;20273;31
2024/01/21 07:55:56;;;;;;;32.65;16.50;;;;;;;-4.05;88.56;100298.28;7206252;40;20689;31
2024/01/21 08:06:37;;;;;;;36.10;16.95;;;;;;;-4.05;88.61;100300.91;7216436;40;20788;31
2024/01/21 08:11:58;;;;;;;48.33;21.40;;;;;;;-3.89;88.57;100310.91;7252164;39;20241;31
2024/01/21 08:17:32;;;;;;;53.40;24.63;;;;;;;-3.86;88.65;100295.00;7300344;39;20746;31
2024/01/21 08:23:09;;;;;;;63.40;26.43;;;;;;;-3.79;88.60;100303.56;7258937;40;20276;31
2024/01/21 08:33:45;;;;;;;67.80;29.90;;;;;;;-3.58;88.43;100313.41;7241290;40;21974;31
2024/01/21 08:39:23;;;;;;;90.27;37.83;;;;;;;-3.51;88.89;100319.34;7257409;40;20257;31
2024/01/21 08:44:55;;;;;;;53.07;23.83;;;;;;;-3.49;89.05;100328.03;7179356;40;21035;31
2024/01/21 08:50:16;;;;;;;44.63;21.67;;;;;;;-3.42;88.84;100330.41;7221011;40;20253;31
2024/01/21 08:55:52;;;;;;;36.57;17.60;;;;;;;-3.41;88.95;100313.69;7221883;40;21343;31
2024/01/21 09:01:27;;;;;;;40.10;18.23;;;;;;;-3.34;89.23;100293.28;7244946;40;20324;31
2024/01/21 09:07:03;;;;;;;32.67;15.87;;;;;;;-3.30;89.42;100298.37;7228494;40;20383;31
2024/01/21 09:12:39;;;;;;;39.27;19.43;;;;;;;-3.20;89.20;100317.34;7197687;40;20258;31
2024/01/21 09:17:59;;;;;;;30.40;16.90;;;;;;;-3.08;89.18;100321.38;7249904;40;20270;31
2024/01/21 09:23:20;;;;;;;44.83;19.77;;;;;;;-2.99;89.54;100340.38;7250412;40;20285;31
2024/01/21 09:34:01;;;;;;;32.17;16.37;;;;;;;-2.84;89.30;100318.69;7305768;39;20760;31
2024/01/21 09:39:37;;;;;;;37.05;17.70;;;;;;;-2.72;88.98;100318.25;7241553;40;20266;31
2024/01/21 09:45:13;;;;;;;32.27;17.83;;;;;;;-2.61;87.78;100314.38;7206065;40;20721;31
2024/01/21 09:50:49;;;;;;;33.17;18.60;;;;;;;-2.59;88.09;100304.63;7136791;40;20371;31
2024/01/21 09:56:09;;;;;;;39.03;21.23;;;;;;;-2.42;88.89;100316.28;7155992;40;20243;31
2024/01/21 10:01:44;;;;;;;38.40;20.70;;;;;;;-2.33;89.22;100374.00;7256167;40;20259;31
2024/01/21 10:07:18;;;;;;;28.80;16.90;;;;;;;-2.23;89.86;100400.03;7204157;40;20313;31
2024/01/21 10:12:54;;;;;;;29.83;16.03;;;;;;;-2.12;89.54;100419.84;7211927;40;20254;31
2024/01/21 10:18:29;;;;;;;27.53;13.67;;;;;;;-2.03;89.67;100408.06;7258370;39;20241;31
2024/01/21 10:24:06;;;;;;;27.87;15.27;;;;;;;-1.97;88.98;100416.63;7226074;40;20246;31
2024/01/21 10:29:41;;;;;;;26.77;14.40;;;;;;;-1.86;89.31;100418.84;7196135;40;20788;31
2024/01/21 10:35:17;;;;;;;22.00;12.50;;;;;;;-1.74;90.48;100418.38;7198469;40;20258;31
2024/01/21 10:40:54;;;;;;;26.47;13.60;;;;;;;-1.53;90.67;100392.87;7194270;40;20422;31
2024/01/21 10:51:33;;;;;;;17.15;9.50;;;;;;;-1.14;90.38;100380.66;7243295;40;20925;31
2024/01/21 10:57:09;;;;;;;15.90;9.05;;;;;;;-0.98;89.76;100376.47;7213739;40;20302;31
2024/01/21 11:07:49;;;;;;;19.70;10.80;;;;;;;-0.52;88.70;100359.41;7263120;40;20276;31
2024/01/21 11:13:26;;;;;;;14.97;8.67;;;;;;;-0.16;88.70;100359.53;7232925;40;20253;31
2024/01/21 11:18:46;;;;;;;14.40;7.50;;;;;;;0.24;87.63;100344.41;7248472;40;20319;31
2024/01/21 11:24:21;;;;;;;14.15;8.30;;;;;;;0.34;88.11;100332.44;7237806;40;20925;31
2024/01/21 11:29:57;;;;;;;16.80;11.10;;;;;;;0.41;87.96;100309.97;7222436;40;20285;31
2024/01/21 11:35:32;;;;;;;16.10;10.10;;;;;;;0.50;87.84;100296.28;7253938;40;20250;31
2024/01/21 11:41:15;;;;;;;17.00;9.47;;;;;;;0.60;87.98;100308.16;7230690;40;20400;31
2024/01/21 11:46:51;;;;;;;16.00;9.10;;;;;;;0.75;87.68;100304.69;7258075;40;20314;31
2024/01/21 11:52:27;;;;;;;13.27;8.67;;;;;;;0.91;87.36;100299.50;7213082;40;20236;31
2024/01/21 11:57:59;;;;;;;15.35;10.55;;;;;;;1.06;86.57;100303.12;6954129;40;20278;31
2024/01/21 12:03:33;;;;;;;16.23;10.00;;;;;;;1.16;85.62;100299.06;7160277;40;20327;31
2024/01/21 12:09:08;;;;;;;16.20;11.35;;;;;;;1.23;85.96;100303.09;7170100;40;20711;31
2024/01/21 12:14:29;;;;;;;20.37;12.70;;;;;;;1.16;85.20;100293.75;7227929;40;20353;31
2024/01/21 12:20:07;;;;;;;18.10;11.90;;;;;;;1.31;84.88;100282.34;7211475;40;20241;31
2024/01/21 12:25:42;;;;;;;19.20;11.30;;;;;;;1.42;84.41;100285.25;7244259;40;20246;31
2024/01/21 12:31:17;;;;;;;18.80;11.20;;;;;;;1.61;84.57;100282.47;7217286;40;20232;31
2024/01/21 12:36:54;;;;;;;17.65;11.40;;;;;;;1.57;83.94;100284.44;7214531;40;20729;31
2024/01/21 12:42:13;;;;;;;18.20;11.30;;;;;;;1.68;83.87;100276.72;7227963;40;20263;31
2024/01/21 12:47:49;;;;;;;19.70;12.05;;;;;;;1.67;84.26;100269.69;7177000;40;20246;31
2024/01/21 12:53:27;;;;;;;21.27;11.47;;;;;;;1.59;83.98;100253.31;7115722;40;20258;31
2024/01/21 12:59:01;;;;;;;18.20;11.40;;;;;;;1.65;83.84;100260.97;7197405;40;20342;31
2024/01/21 13:04:21;;;;;;;19.73;11.63;;;;;;;1.65;83.88;100266.28;7141243;40;20490;31
2024/01/21 13:09:57;;;;;;;19.10;12.80;;;;;;;1.64;84.14;100261.03;7163233;40;20247;31
2024/01/21 13:15:31;;;;;;;20.40;13.05;;;;;;;1.64;84.36;100259.25;7180792;40;20745;31
2024/01/21 13:21:07;;;;;;;22.53;13.60;;;;;;;1.62;84.33;100249.66;7211892;40;20355;31
2024/01/21 13:26:43;;;;;;;20.37;13.10;;;;;;;1.59;84.18;100241.84;7239505;40;20269;31
2024/01/21 13:32:17;;;;;;;20.07;12.63;;;;;;;1.70;84.62;100229.69;7168875;40;20248;31
2024/01/21 13:37:52;;;;;;;21.50;13.50;;;;;;;1.75;83.89;100229.44;7175715;40;20366;31
2024/01/21 13:43:24;;;;;;;25.87;16.67;;;;;;;1.73;84.65;100218.03;7193286;40;20248;31
2024/01/21 13:48:46;;;;;;;63.50;31.37;;;;;;;1.68;84.16;100214.75;7207197;40;20757;31
2024/01/21 13:54:20;;;;;;;27.73;16.07;;;;;;;1.65;84.81;100220.25;7233449;40;20319;31
2024/01/21 13:59:56;;;;;;;27.03;17.13;;;;;;;1.53;84.71;100207.66;7217589;40;20270;31
2024/01/21 14:05:32;;;;;;;22.20;14.30;;;;;;;1.51;85.37;100207.72;7179862;40;20243;31
2024/01/21 14:11:06;;;;;;;26.45;16.70;;;;;;;1.49;85.68;100211.44;7176755;40;20237;31
2024/01/21 14:16:42;;;;;;;25.80;17.70;;;;;;;1.50;85.25;100218.44;7221915;40;20243;31
2024/01/21 14:22:17;;;;;;;26.50;18.15;;;;;;;1.51;85.25;100205.06;7232214;40;20228;31
2024/01/21 14:27:38;;;;;;;27.15;18.45;;;;;;;1.59;85.40;100192.22;7230186;40;22087;31
2024/01/21 14:33:15;;;;;;;22.95;14.10;;;;;;;1.62;85.90;100204.50;7226877;40;20241;31
2024/01/21 14:38:49;;;;;;;20.97;13.47;;;;;;;1.67;85.21;100197.94;7166527;40;20239;31
2024/01/21 14:44:10;;;;;;;19.25;12.15;;;;;;;1.75;85.43;100203.72;7257568;40;20332;31
2024/01/21 14:49:46;;;;;;;17.42;10.38;;;;;;;1.75;85.59;100211.69;7238294;40;20242;31
2024/01/21 14:55:22;;;;;;;16.35;10.70;;;;;;;1.81;85.22;100216.66;7224803;40;20258;31
2024/01/21 15:00:43;;;;;;;16.50;10.50;;;;;;;1.87;85.15;100214.59;7207585;40;20281;31
2024/01/21 15:06:20;;;;;;;24.30;17.17;;;;;;;1.87;85.79;100214.59;7218376;40;20243;31
2024/01/21 15:11:39;;;;;;;30.63;19.90;;;;;;;1.92;85.59;100231.13;7225369;40;20241;31
2024/01/21 15:16:59;;;;;;;30.57;18.83;;;;;;;1.90;85.44;100235.66;7225650;40;20661;31
2024/01/21 15:22:33;;;;;;;22.20;13.80;;;;;;;1.89;85.25;100226.00;7228419;40;20246;31
2024/01/21 15:27:53;;;;;;;22.20;13.90;;;;;;;1.91;85.49;100240.91;7166299;40;20399;31
2024/01/21 15:33:27;;;;;;;17.10;11.80;;;;;;;1.90;85.14;100238.31;7165150;40;20353;31
2024/01/21 15:44:20;;;;;;;46.20;28.03;;;;;;;1.95;85.05;100241.59;7190760;40;21655;31
2024/01/21 15:54:41;;;;;;;19.60;13.70;;;;;;;2.01;86.08;100252.75;7297000;39;21357;31
2024/01/21 16:00:16;;;;;;;14.23;9.93;;;;;;;1.98;86.58;100246.72;7218534;40;20268;31
2024/01/21 16:05:36;;;;;;;14.55;9.80;;;;;;;2.01;86.15;100250.09;7241069;40;20257;31
2024/01/21 16:10:56;;;;;;;15.50;10.57;;;;;;;2.03;86.42;100239.34;7185079;40;20241;31
2024/01/21 16:16:33;;;;;;;15.20;10.20;;;;;;;2.10;86.29;100230.94;7253228;39;20240;31
2024/01/21 16:22:08;;;;;;;13.20;8.10;;;;;;;2.16;85.89;100233.25;7209226;40;21479;31
2024/01/21 16:27:28;;;;;;;19.63;10.90;;;;;;;2.21;86.63;100248.94;7255921;39;20242;31
2024/01/21 16:33:02;;;;;;;13.05;7.25;;;;;;;2.16;86.69;100257.16;7296215;39;20268;31
2024/01/21 16:43:41;;;;;;;12.33;8.60;;;;;;;2.29;85.90;100254.66;7316658;39;20810;31
2024/01/21 16:49:17;;;;;;;11.63;7.50;;;;;;;2.24;86.74;100262.03;7241291;40;20611;31
2024/01/21 16:54:37;;;;;;;12.70;7.87;;;;;;;2.28;86.72;100277.75;7229634;40;20675;31
2024/01/21 17:00:13;;;;;;;11.33;6.90;;;;;;;2.27;86.20;100253.91;7218754;40;20258;31
2024/01/21 17:05:49;;;;;;;10.50;6.93;;;;;;;2.33;85.46;100250.00;7185523;40;20246;31
2024/01/21 17:11:25;;;;;;;11.87;7.17;;;;;;;2.33;85.96;100245.56;7163297;40;20277;31
2024/01/21 17:17:00;;;;;;;32.30;15.30;;;;;;;2.34;85.92;100249.06;7215702;40;20274;31
2024/01/21 17:22:36;;;;;;;10.83;7.20;;;;;;;2.35;87.02;100251.66;7158230;40;20237;31
2024/01/21 17:27:56;;;;;;;19.90;11.37;;;;;;;2.39;86.15;100262.97;7170012;40;20243;31
2024/01/21 17:33:16;;;;;;;14.23;7.77;;;;;;;2.45;86.97;100249.31;7207237;40;20242;31
2024/01/21 17:38:52;;;;;;;9.80;6.13;;;;;;;2.47;87.36;100245.62;7218764;40;20659;31
2024/01/21 17:44:12;;;;;;;10.75;6.20;;;;;;;2.53;86.11;100244.41;7240496;40;20324;31
2024/01/21 17:49:48;;;;;;;9.30;5.80;;;;;;;2.48;85.53;100243.81;7236948;40;20673;31
2024/01/21 17:55:22;;;;;;;12.30;7.35;;;;;;;2.51;87.27;100241.81;7234568;40;20260;31
2024/01/21 18:00:43;;;;;;;21.80;10.87;;;;;;;2.53;86.73;100245.25;7308277;39;20241;31
2024/01/21 18:06:04;;;;;;;19.90;9.77;;;;;;;2.51;86.50;100233.84;7278456;40;20237;31
2024/01/21 18:11:40;;;;;;;11.90;7.25;;;;;;;2.48;87.54;100215.41;7228835;40;20261;31
2024/01/21 18:17:15;;;;;;;12.40;7.00;;;;;;;2.48;87.74;100204.75;7227933;40;20242;31
2024/01/21 18:22:50;;;;;;;9.80;6.30;;;;;;;2.51;86.98;100207.22;7247990;40;20915;31
2024/01/21 18:28:21;;;;;;;9.40;6.45;;;;;;;2.51;87.38;100209.91;7000539;40;21309;31
2024/01/21 18:33:56;;;;;;;11.30;6.40;;;;;;;2.54;88.54;100206.22;7166414;40;20380;31
2024/01/21 18:39:16;;;;;;;10.10;5.87;;;;;;;2.56;88.15;100193.66;7156776;40;20294;31
2024/01/21 18:44:53;;;;;;;9.10;5.70;;;;;;;2.56;88.68;100181.22;7194162;40;20332;31
2024/01/21 18:50:13;;;;;;;7.60;5.63;;;;;;;2.63;88.37;100187.88;7196349;40;20246;31
2024/01/21 18:55:34;;;;;;;11.80;6.30;;;;;;;2.66;89.12;100185.03;7254353;40;20264;31
2024/01/21 19:01:13;;;;;;;12.23;6.60;;;;;;;2.69;89.92;100186.66;7256628;40;20301;31
2024/01/21 19:06:31;;;;;;;7.30;5.60;;;;;;;2.77;89.21;100194.16;7227285;40;20247;31
2024/01/21 19:17:12;;;;;;;8.27;5.20;;;;;;;2.83;88.63;100172.50;7268693;40;20742;31
2024/01/21 19:22:47;;;;;;;8.50;5.10;;;;;;;2.92;88.94;100161.28;7273472;39;20253;31
2024/01/21 19:28:09;;;;;;;7.17;5.10;;;;;;;2.98;89.71;100152.94;7218236;40;20395;31
2024/01/21 19:33:43;;;;;;;9.25;5.20;;;;;;;2.94;88.96;100151.41;7232127;40;20351;31
2024/01/21 19:44:19;;;;;;;8.15;4.85;;;;;;;3.02;89.31;100141.13;7215533;40;21341;31
2024/01/21 19:49:55;;;;;;;11.93;6.33;;;;;;;2.95;89.52;100135.31;7229253;39;20375;31
2024/01/21 19:55:30;;;;;;;10.80;5.47;;;;;;;2.93;89.66;100129.25;7198230;40;20253;31
2024/01/21 20:01:05;;;;;;;7.53;5.17;;;;;;;2.94;88.60;100116.81;7242858;40;20313;31
2024/01/21 20:06:41;;;;;;;8.00;4.90;;;;;;;2.94;89.61;100096.34;7237895;40;20264;31
2024/01/21 20:12:16;;;;;;;7.37;4.80;;;;;;;3.01;90.01;100097.69;7228503;40;20237;31
2024/01/21 20:17:52;;;;;;;5.95;4.15;;;;;;;3.06;89.19;100082.25;7247053;40;20397;31
2024/01/21 20:23:27;;;;;;;7.40;5.00;;;;;;;3.04;90.07;100080.63;7220274;40;20393;31
2024/01/21 20:29:02;;;;;;;8.35;5.35;;;;;;;3.09;88.61;100071.41;7214960;40;20262;31
2024/01/21 20:34:35;;;;;;;9.40;5.83;;;;;;;3.07;88.84;100067.16;7158742;40;20865;31
2024/01/21 20:40:10;;;;;;;9.30;5.70;;;;;;;3.06;89.03;100033.47;7188591;40;20271;31
2024/01/21 20:45:30;;;;;;;13.95;5.25;;;;;;;3.07;88.63;100013.87;7217210;40;20266;31
2024/01/21 20:50:51;;;;;;;9.55;5.70;;;;;;;3.06;89.10;99998.84;7227835;40;20246;31
2024/01/21 20:56:25;;;;;;;7.50;4.90;;;;;;;3.02;88.60;99989.38;7245571;40;20814;31
2024/01/21 21:01:46;;;;;;;12.27;5.90;;;;;;;3.02;89.05;100000.00;7270763;39;20363;31
2024/01/21 21:07:18;;;;;;;8.50;5.70;;;;;;;2.95;89.07;99980.03;7237720;40;20684;31
2024/01/21 21:12:54;;;;;;;12.97;6.23;;;;;;;2.91;89.41;99992.72;7252977;40;20250;31
2024/01/21 21:18:29;;;;;;;8.60;6.23;;;;;;;2.92;88.92;99996.22;7216268;40;20317;31
2024/01/21 21:29:06;;;;;;;11.48;5.78;;;;;;;2.91;88.54;99966.09;7252682;40;21397;31
2024/01/21 21:39:31;;;;;;;10.25;5.80;;;;;;;2.94;87.92;99943.75;7247490;40;20295;31
2024/01/21 21:50:10;;;;;;;13.27;9.03;;;;;;;2.92;86.73;99937.66;7265527;39;21293;31
2024/01/21 22:00:49;;;;;;;8.05;5.00;;;;;;;2.94;87.76;99928.59;7265089;40;20269;31
2024/01/21 22:06:25;;;;;;;8.00;4.13;;;;;;;3.01;87.09;99918.41;7198154;40;20243;31
2024/01/21 22:11:45;;;;;;;6.80;3.70;;;;;;;3.06;86.40;99916.31;7191120;40;20257;31
2024/01/21 22:17:20;;;;;;;7.20;3.30;;;;;;;3.11;85.95;99903.53;7263116;39;20371;31
2024/01/21 22:22:56;;;;;;;9.40;5.00;;;;;;;3.17;86.81;99898.66;7236900;39;20245;31
2024/01/21 22:28:16;;;;;;;5.57;3.07;;;;;;;3.25;86.73;99892.78;7199289;40;20391;31
2024/01/21 22:33:52;;;;;;;6.00;3.40;;;;;;;3.27;85.96;99888.22;7176540;40;20246;31
2024/01/21 22:39:28;;;;;;;5.73;2.90;;;;;;;3.47;86.93;99889.53;7178059;40;20221;31
2024/01/21 22:45:03;;;;;;;4.40;3.10;;;;;;;3.87;86.31;99896.47;7201855;40;20249;31
2024/01/21 22:50:23;;;;;;;5.80;3.05;;;;;;;3.97;86.13;99908.22;7246630;39;20273;31
2024/01/21 23:01:05;;;;;;;9.17;3.07;;;;;;;4.12;84.85;99903.63;7272500;39;20265;31
2024/01/21 23:11:56;;;;;;;5.95;3.10;;;;;;;4.30;84.71;99882.78;7312632;39;21602;31
2024/01/21 23:17:30;;;;;;;5.63;3.00;;;;;;;4.28;83.66;99869.53;7154957;40;20267;31
2024/01/21 23:27:52;;;;;;;5.83;3.40;;;;;;;4.34;84.13;99844.25;7237793;40;20270;31
2024/01/21 23:33:28;;;;;;;4.60;3.20;;;;;;;4.32;84.98;99822.12;7228663;40;20242;31
2024/01/21 23:38:48;;;;;;;4.85;3.10;;;;;;;4.36;84.45;99834.28;7272536;39;20442;31
2024/01/21 23:44:24;;;;;;;5.70;3.17;;;;;;;4.35;85.75;99827.25;7317671;39;20485;31
2024/01/21 23:50:00;;;;;;;6.10;3.05;;;;;;;4.37;85.43;99809.31;7239794;40;20260;31
2024/01/21 23:55:20;;;;;;;4.70;3.40;;;;;;;4.33;86.01;99800.69;7205785;40;20401;31
